createdAt,value
2023-04-02T00:04:24.639Z,3.70
2023-04-02T00:08:18.777Z,4.50
2023-04-02T00:12:10.734Z,3.40
2023-04-02T00:15:59.439Z,2.80
2023-04-02T00:24:18.265Z,4.30
2023-04-02T00:28:45.815Z,4.90
2023-04-02T00:33:09.176Z,4.60
2023-04-02T00:37:13.858Z,5.10
2023-04-02T00:41:37.536Z,5.00
2023-04-02T00:46:11.053Z,4.80
2023-04-02T00:55:07.854Z,3.80
2023-04-02T00:59:34.171Z,3.30
2023-04-02T01:03:21.763Z,4.30
2023-04-02T01:07:12.260Z,3.50
2023-04-02T01:11:13.117Z,4.00
2023-04-02T01:15:00.418Z,4.10
2023-04-02T01:19:11.957Z,3.30
2023-04-02T01:23:03.840Z,2.90
2023-04-02T01:27:09.663Z,3.20
2023-04-02T01:31:00.056Z,3.50
2023-04-02T01:34:47.579Z,4.00
2023-04-02T01:38:33.874Z,3.10
2023-04-02T01:42:24.145Z,4.40
2023-04-02T01:46:13.085Z,3.40
2023-04-02T01:50:00.616Z,2.60
2023-04-02T01:53:50.911Z,2.90
2023-04-02T01:57:38.370Z,3.10
2023-04-02T02:01:36.776Z,3.00
2023-04-02T02:05:22.826Z,2.60
2023-04-02T02:09:12.832Z,3.50
2023-04-02T02:12:48.877Z,3.50
2023-04-02T02:16:39.031Z,3.40
2023-04-02T02:20:23.761Z,3.00
2023-04-02T02:24:04.230Z,4.80
2023-04-02T02:28:06.889Z,3.40
2023-04-02T02:31:58.193Z,4.40
2023-04-02T02:35:51.466Z,3.30
2023-04-02T02:44:25.261Z,3.50
2023-04-02T02:48:03.593Z,4.90
2023-04-02T02:52:11.640Z,3.00
2023-04-02T02:56:04.188Z,4.00
2023-04-02T02:59:56.298Z,3.00
2023-04-02T03:03:50.442Z,3.20
2023-04-02T03:07:10.070Z,2.40
2023-04-02T03:11:12.892Z,2.40
2023-04-02T03:14:56.609Z,2.60
2023-04-02T03:18:52.172Z,1.90
2023-04-02T03:22:37.608Z,3.50
2023-04-02T03:26:27.819Z,2.30
2023-04-02T03:30:20.750Z,3.70
2023-04-02T03:34:14.232Z,2.50
2023-04-02T03:37:55.461Z,3.00
2023-04-02T03:41:58.396Z,3.80
2023-04-02T03:46:25.942Z,2.20
2023-04-02T03:50:54.675Z,1.90
2023-04-02T03:55:23.486Z,2.20
2023-04-02T03:59:56.577Z,2.50
2023-04-02T04:08:44.260Z,1.50
2023-04-02T04:13:27.012Z,1.90
2023-04-02T04:17:40.542Z,1.50
2023-04-02T04:22:10.805Z,1.20
2023-04-02T04:26:34.583Z,1.80
2023-04-02T04:35:28.529Z,1.50
2023-04-02T04:40:07.073Z,1.20
2023-04-02T04:44:43.668Z,1.30
2023-04-02T04:49:30.393Z,1.50
2023-04-02T04:54:00.887Z,1.30
2023-04-02T04:58:33.746Z,1.40
2023-04-02T05:02:41.037Z,1.10
2023-04-02T05:06:25.524Z,1.30
2023-04-02T05:10:13.012Z,1.50
2023-04-02T05:14:01.525Z,1.70
2023-04-02T05:17:37.845Z,1.10
2023-04-02T05:21:26.633Z,1.10
2023-04-02T05:25:15.927Z,1.50
2023-04-02T05:28:59.589Z,1.20
2023-04-02T05:32:46.117Z,1.30
2023-04-02T05:36:27.909Z,1.50
2023-04-02T05:40:15.765Z,1.80
2023-04-02T05:44:03.549Z,1.40
2023-04-02T05:47:54.623Z,1.50
2023-04-02T05:51:42.600Z,1.50
2023-04-02T05:55:35.888Z,1.10
2023-04-02T05:59:24.726Z,1.50
2023-04-02T06:03:05.496Z,1.70
2023-04-02T06:06:46.730Z,1.30
2023-04-02T06:10:35.050Z,1.30
2023-04-02T06:14:12.668Z,1.70
2023-04-02T06:18:00.700Z,2.20
2023-04-02T06:21:48.180Z,1.70
2023-04-02T06:25:30.351Z,1.00
2023-04-02T06:29:09.624Z,1.10
2023-04-02T06:32:52.407Z,1.10
2023-04-02T06:36:40.559Z,0.80
2023-04-02T06:44:55.541Z,1.30
2023-04-02T06:48:41.336Z,1.40
2023-04-02T06:52:29.249Z,1.10
2023-04-02T06:56:35.391Z,1.20
2023-04-02T07:00:23.517Z,1.30
2023-04-02T07:04:01.451Z,1.00
2023-04-02T07:07:51.874Z,1.10
2023-04-02T07:11:39.832Z,1.10
2023-04-02T07:15:21.885Z,0.90
2023-04-02T07:19:22.560Z,1.50
2023-04-02T07:32:19.159Z,0.60
2023-04-02T07:38:05.018Z,0.90
2023-04-02T07:42:36.678Z,1.00
2023-04-02T07:46:47.247Z,1.40
2023-04-02T07:50:57.927Z,1.00
2023-04-02T07:55:27.374Z,1.90
2023-04-02T07:59:56.595Z,1.00
2023-04-02T08:04:26.040Z,1.00
2023-04-02T08:08:46.019Z,1.60
2023-04-02T08:13:15.282Z,1.70
2023-04-02T08:17:26.537Z,1.30
2023-04-02T08:21:39.227Z,1.60
2023-04-02T08:26:01.213Z,1.10
2023-04-02T08:30:10.285Z,1.90
2023-04-02T08:34:35.749Z,1.50
2023-04-02T08:38:24.959Z,1.30
2023-04-02T08:42:52.859Z,1.60
2023-04-02T08:47:37.875Z,1.10
2023-04-02T08:51:48.993Z,1.50
2023-04-02T08:56:20.842Z,1.90
2023-04-02T09:00:37.992Z,1.20
2023-04-02T09:04:48.871Z,1.90
2023-04-02T09:09:00.438Z,2.70
2023-04-02T09:13:19.781Z,2.20
2023-04-02T09:17:42.770Z,2.20
2023-04-02T09:21:13.369Z,2.30
2023-04-02T09:24:43.531Z,1.20
2023-04-02T09:28:33.408Z,2.10
2023-04-02T09:32:24.403Z,1.50
2023-04-02T09:35:51.975Z,1.30
2023-04-02T09:39:41.710Z,1.40
2023-04-02T09:43:30.298Z,0.90
2023-04-02T09:46:47.148Z,2.80
2023-04-02T09:50:36.962Z,1.50
2023-04-02T09:54:28.165Z,1.40
2023-04-02T09:58:16.393Z,1.60
2023-04-02T10:02:05.437Z,1.10
2023-04-02T10:05:43.089Z,1.60
2023-04-02T10:09:00.054Z,1.90
2023-04-02T10:12:49.497Z,1.60
2023-04-02T10:20:18.365Z,1.70
2023-04-02T10:24:07.638Z,1.20
2023-04-02T10:28:03.145Z,1.00
2023-04-02T10:32:02.184Z,1.50
2023-04-02T10:35:19.497Z,1.70
2023-04-02T10:38:13.217Z,1.00
2023-04-02T10:41:51.362Z,1.00
2023-04-02T10:45:19.035Z,1.80
2023-04-02T10:49:23.800Z,1.20
2023-04-02T10:52:37.812Z,1.50
2023-04-02T10:55:51.089Z,1.20
2023-04-02T10:59:21.109Z,1.60
2023-04-02T11:02:26.932Z,2.70
2023-04-02T11:05:51.495Z,1.60
2023-04-02T11:09:24.373Z,2.20
2023-04-02T11:12:02.249Z,1.10
2023-04-02T11:15:14.886Z,1.90
2023-04-02T11:18:50.878Z,1.70
2023-04-02T11:21:58.703Z,1.40
2023-04-02T11:25:07.711Z,1.90
2023-04-02T11:27:41.368Z,1.10
2023-04-02T11:31:26.480Z,1.40
2023-04-02T11:35:21.737Z,1.80
2023-04-02T11:39:04.460Z,2.10
2023-04-02T11:42:38.005Z,2.50
2023-04-02T11:46:27.218Z,2.00
2023-04-02T11:50:09.410Z,1.60
2023-04-02T11:53:58.616Z,2.00
2023-04-02T11:57:52.464Z,1.60
2023-04-02T12:01:53.733Z,1.30
2023-04-02T12:05:04.631Z,1.70
2023-04-02T12:08:58.439Z,1.20
2023-04-02T12:12:56.744Z,1.50
2023-04-02T12:16:24.738Z,1.20
2023-04-02T12:20:14.563Z,1.20
2023-04-02T12:23:36.927Z,1.60
2023-04-02T12:26:38.655Z,1.80
2023-04-02T12:30:14.667Z,1.30
2023-04-02T12:34:05.088Z,1.40
2023-04-02T12:37:46.440Z,1.40
2023-04-02T12:41:36.568Z,2.60
2023-04-02T12:45:14.125Z,1.70
2023-04-02T12:48:45.939Z,1.90
2023-04-02T12:52:26.110Z,0.70
2023-04-02T12:56:08.415Z,2.50
2023-04-02T13:00:00.831Z,3.30
2023-04-02T13:03:56.528Z,3.20
2023-04-02T13:07:45.906Z,4.20
2023-04-02T13:11:15.421Z,2.60
2023-04-02T13:15:00.350Z,1.80
2023-04-02T13:18:41.366Z,0.90
2023-04-02T13:22:24.418Z,2.40
2023-04-02T13:25:56.685Z,2.40
2023-04-02T13:30:05.043Z,1.70
2023-04-02T13:33:53.415Z,2.50
2023-04-02T13:37:34.254Z,1.90
2023-04-02T13:41:06.673Z,3.10
2023-04-02T13:44:23.566Z,2.80
2023-04-02T13:48:04.043Z,1.50
2023-04-02T13:51:45.281Z,2.20
2023-04-02T13:55:25.342Z,2.10
2023-04-02T13:58:58.358Z,1.90
2023-04-02T14:02:47.090Z,1.00
2023-04-02T14:06:33.083Z,1.40
2023-04-02T14:10:31.561Z,1.20
2023-04-02T14:14:34.341Z,1.80
2023-04-02T14:18:38.596Z,1.20
2023-04-02T14:22:39.694Z,1.70
2023-04-02T14:26:39.556Z,1.10
2023-04-02T14:30:52.797Z,1.00
2023-04-02T14:34:41.212Z,1.70
2023-04-02T14:38:29.293Z,1.90
2023-04-02T14:42:24.053Z,1.60
2023-04-02T14:46:07.246Z,1.20
2023-04-02T14:50:13.057Z,1.90
2023-04-02T14:53:48.700Z,3.10
2023-04-02T14:57:31.033Z,1.20
2023-04-02T15:01:31.145Z,1.60
2023-04-02T15:05:18.742Z,1.80
2023-04-02T15:09:09.664Z,2.10
2023-04-02T15:12:10.705Z,1.10
2023-04-02T15:15:48.336Z,1.40
2023-04-02T15:19:24.018Z,1.40
2023-04-02T15:23:11.135Z,1.70
2023-04-02T15:26:58.222Z,1.30
2023-04-02T15:30:44.599Z,1.10
2023-04-02T15:34:17.072Z,1.50
2023-04-02T15:38:08.117Z,1.40
2023-04-02T15:42:03.069Z,2.10
2023-04-02T15:46:03.461Z,2.70
2023-04-02T15:50:04.452Z,2.30
2023-04-02T15:53:55.721Z,1.60
2023-04-02T15:57:41.664Z,2.90
2023-04-02T16:01:10.581Z,2.50
2023-04-02T16:05:14.525Z,1.30
2023-04-02T16:09:03.304Z,2.10
2023-04-02T16:12:27.339Z,1.70
2023-04-02T16:16:11.774Z,1.50
2023-04-02T16:20:06.882Z,2.80
2023-04-02T16:23:58.726Z,1.50
2023-04-02T16:27:55.514Z,1.30
2023-04-02T16:31:50.567Z,2.70
2023-04-02T16:39:36.936Z,1.70
2023-04-02T16:43:34.844Z,1.60
2023-04-02T16:47:25.251Z,1.90
2023-04-02T16:51:14.105Z,1.40
2023-04-02T16:54:56.622Z,2.00
2023-04-02T16:58:47.936Z,1.90
2023-04-02T17:02:44.483Z,1.90
2023-04-02T17:06:39.743Z,2.20
2023-04-02T17:10:31.177Z,2.50
2023-04-02T17:14:06.211Z,1.60
2023-04-02T17:17:34.407Z,2.00
2023-04-02T17:21:07.397Z,1.70
2023-04-02T17:24:54.831Z,1.60
2023-04-02T17:28:36.993Z,1.90
2023-04-02T17:32:25.076Z,1.70
2023-04-02T17:36:04.435Z,2.60
2023-04-02T17:39:53.082Z,2.40
2023-04-02T17:43:53.403Z,2.20
2023-04-02T17:47:45.592Z,2.30
2023-04-02T17:51:42.002Z,2.70
2023-04-02T17:55:36.270Z,2.00
2023-04-02T17:59:32.306Z,2.10
2023-04-02T18:03:24.504Z,2.60
2023-04-02T18:07:14.125Z,2.00
2023-04-02T18:11:08.267Z,2.00
2023-04-02T18:14:56.795Z,1.80
2023-04-02T18:18:47.305Z,3.80
2023-04-02T18:22:25.810Z,3.30
2023-04-02T18:26:25.827Z,3.40
2023-04-02T18:30:15.790Z,2.20
2023-04-02T18:34:00.161Z,3.20
2023-04-02T18:37:15.041Z,3.40
2023-04-02T18:40:22.615Z,3.40
2023-04-02T18:44:03.742Z,4.40
2023-04-02T18:47:34.396Z,2.30
2023-04-02T18:50:59.316Z,1.80
2023-04-02T18:54:40.652Z,1.50
2023-04-02T18:58:10.338Z,2.10
2023-04-02T19:01:26.038Z,2.10
2023-04-02T19:05:02.681Z,1.70
2023-04-02T19:08:49.996Z,1.70
2023-04-02T19:12:16.257Z,3.10
2023-04-02T19:15:30.782Z,2.90
2023-04-02T19:21:59.294Z,1.40
2023-04-02T19:26:35.288Z,3.30
2023-04-02T19:31:09.736Z,1.80
2023-04-02T19:35:46.659Z,2.10
2023-04-02T19:40:23.742Z,1.80
2023-04-02T19:44:54.404Z,1.70
2023-04-02T19:49:27.984Z,1.80
2023-04-02T19:53:38.770Z,1.50
2023-04-02T19:58:17.736Z,2.10
2023-04-02T20:02:36.764Z,2.20
2023-04-02T20:07:05.338Z,2.30
2023-04-02T20:11:14.806Z,2.40
2023-04-02T20:15:43.458Z,1.80
2023-04-02T20:20:14.621Z,1.50
2023-04-02T20:24:44.771Z,1.50
2023-04-02T20:29:21.721Z,1.60
2023-04-02T20:33:51.003Z,1.90
2023-04-02T20:38:24.499Z,1.80
2023-04-02T20:42:55.133Z,3.10
2023-04-02T20:47:29.255Z,2.20
2023-04-02T20:51:57.440Z,2.50
2023-04-02T20:56:25.295Z,1.40
2023-04-02T21:00:56.443Z,1.60
2023-04-02T21:05:24.445Z,1.60
2023-04-02T21:09:55.793Z,1.60
2023-04-02T21:14:24.288Z,1.60
2023-04-02T21:18:52.308Z,2.10
2023-04-02T21:23:23.754Z,1.90
2023-04-02T21:27:54.845Z,2.20
2023-04-02T21:32:23.069Z,1.90
2023-04-02T21:36:54.830Z,1.60
2023-04-02T21:41:23.573Z,1.50
2023-04-02T21:45:52.033Z,1.40
2023-04-02T21:50:20.521Z,1.40
2023-04-02T21:54:48.895Z,1.90
2023-04-02T21:59:16.915Z,1.40
2023-04-02T22:03:45.663Z,1.00
2023-04-02T22:08:13.712Z,1.10
2023-04-02T22:12:41.828Z,1.80
2023-04-02T22:17:15.878Z,1.50
2023-04-02T22:21:43.900Z,1.90
2023-04-02T22:26:12.082Z,1.10
2023-04-02T22:30:40.365Z,2.00
2023-04-02T22:35:08.078Z,2.20
2023-04-02T22:39:36.555Z,1.80
2023-04-02T22:44:04.588Z,1.70
2023-04-02T22:48:32.924Z,1.60
2023-04-02T22:53:00.472Z,1.20
2023-04-02T22:57:29.313Z,2.20
2023-04-02T23:01:56.604Z,1.60
2023-04-02T23:06:23.962Z,1.30
2023-04-02T23:10:52.148Z,1.10
2023-04-02T23:15:20.001Z,1.70
2023-04-02T23:19:47.495Z,1.20
2023-04-02T23:24:15.925Z,1.30
2023-04-02T23:28:43.985Z,1.20
2023-04-02T23:33:11.486Z,1.10
2023-04-02T23:37:39.413Z,1.90
2023-04-02T23:42:12.509Z,1.50
2023-04-02T23:46:43.735Z,1.20
2023-04-02T23:51:11.196Z,0.90
